Latest Weather Observations for Cobar Airport

IDN60801

Issued at 12:32 pm EDT Thursday 21 November 2019 (issued every 10 minutes, with the page automatically refreshed every 10 minutes)

About weather observations | Map of weather stations | Latest weather observations for NSW | Other Formats
Station Details ID: 048237 Name: COBAR AIRPORT AWS Lat: -31.54 Lon: 145.80 Height: 218.0 m
Data from the previous 72 hours. | See also: Recent months at Cobar Airport
Date/Time
EDT
Temp
°C
App
Temp
°C
Dew
Point
°C
Rel
Hum
%
Delta-T
°C
Wind Press
QNH
hPa
Press
MSL
hPa
Rain since
9am
mm
Dir  Spd
km/h
Gust
km/h
Spd
kts
Gust
kts
21/12:30pm 37.7 31.4 5.6 14 17.8 NNE 28 44 15 24 1010.4 1009.4 0.0
21/12:00pm 36.4 30.3 6.6 16 16.6 NNE 28 48 15 26 1010.8 1009.8 0.0
21/11:59am 36.7 30.6 6.8 16 16.7 NNE 28 48 15 26 1010.8 1009.8 0.0
21/11:30am 35.5 28.7 6.7 17 16.0 NNE 32 43 17 23 1011.1 1010.1 0.0
21/11:00am 34.8 28.8 7.0 18 15.5 NE 28 37 15 20 1011.4 1010.4 0.0
21/10:30am 33.4 27.9 7.4 20 14.5 NE 26 35 14 19 1011.7 1010.7 0.0
21/10:00am 32.7 27.0 8.2 22 13.8 NNE 28 39 15 21 1011.9 1010.9 0.0
21/09:43am 31.6 25.8 8.0 23 13.1 NE 28 39 15 21 1012.0 1011.0 0.0
21/09:30am 30.8 25.4 7.9 24 12.7 NE 26 35 14 19 1012.0 1011.0 0.0
21/09:00am 29.3 24.2 7.8 26 11.8 NE 24 33 13 18 1012.1 1011.1 0.0
21/08:49am 29.2 23.3 7.7 26 11.8 NE 28 43 15 23 1012.2 1011.2 0.0
21/08:30am 28.1 22.2 7.4 27 11.2 NE 28 41 15 22 1012.1 1011.1 0.0
21/08:00am 27.4 21.3 6.8 27 11.0 NE 28 39 15 21 1012.0 1011.0 0.0
21/07:30am 26.7 20.3 5.1 25 11.1 ENE 28 43 15 23 1011.9 1010.9 0.0
21/07:00am 26.4 20.6 4.2 24 11.3 NE 24 32 13 17 1011.7 1010.7 0.0
21/06:30am 26.2 20.9 2.8 22 11.6 NE 20 33 11 18 1011.5 1010.5 0.0
21/06:00am 26.1 20.7 2.7 22 11.5 NE 20 28 11 15 1011.3 1010.3 0.0
21/05:30am 26.7 21.5 2.6 21 11.9 ENE 19 28 10 15 1010.9 1009.9 0.0
21/05:00am 26.7 21.8 1.9 20 12.1 ENE 17 24 9 13 1010.7 1009.7 0.0
21/04:30am 27.5 22.1 1.1 18 12.8 ENE 19 28 10 15 1010.5 1009.5 0.0
21/04:00am 28.3 23.2 0.9 17 13.3 ENE 17 22 9 12 1010.5 1009.5 0.0
21/03:30am 28.3 24.0 0.9 17 13.3 ENE 13 19 7 10 1010.3 1009.3 0.0
21/03:00am 27.7 23.4 1.2 18 12.9 ENE 13 19 7 10 1010.4 1009.4 0.0
21/02:30am 26.9 23.2 2.1 20 12.1 NE 11 13 6 7 1010.4 1009.4 0.0
21/02:00am 27.7 23.4 1.2 18 12.9 ENE 13 17 7 9 1010.7 1009.7 0.0
21/01:30am 27.3 23.9 1.7 19 12.5 NE 9 11 5 6 1011.0 1010.0 0.0
21/01:00am 28.0 23.9 2.2 19 12.8 NNE 13 15 7 8 1011.1 1010.1 0.0
21/12:30am 28.9 24.7 1.4 17 13.5 NE 13 15 7 8 1011.0 1010.0 0.0
21/12:00am 29.1 25.1 0.7 16 13.8 ENE 11 13 6 7 1011.1 1010.1 0.0
 
Date/Time
EDT
Temp
°C
App
Temp
°C
Dew
Point
°C
Rel
Hum
%
Delta-T
°C
Wind Press
QNH
hPa
Press
MSL
hPa
Rain since
9am
mm
Dir  Spd
km/h
Gust
km/h
Spd
kts
Gust
kts
20/11:30pm 29.9 26.4 1.4 16 14.1 NE 9 13 5 7 1011.1 1010.1 0.0
20/11:00pm 31.1 26.3 0.5 14 15.0 ENE 15 17 8 9 1010.9 1009.9 0.0
20/10:30pm 31.3 26.9 0.6 14 15.1 E 13 15 7 8 1010.9 1009.9 0.0
20/10:00pm 32.6 28.2 0.6 13 15.9 E 13 15 7 8 1010.8 1009.8 0.0
20/09:30pm 32.7 28.4 0.7 13 15.9 E 13 19 7 10 1010.4 1009.4 0.0
20/09:00pm 31.2 29.6 2.4 16 14.6 CALM 0 6 0 3 1010.1 1009.1 0.0
20/08:30pm 33.2 29.7 1.1 13 16.1 SE 9 11 5 6 1009.9 1008.9 0.0
20/08:00pm 35.6 32.2 -0.7 10 18.0 SE 7 9 4 5 1009.7 1008.8 0.0
20/07:30pm 38.2 34.5 -0.2 9 19.5 SE 9 11 5 6 1009.4 1008.5 0.0
20/07:00pm 39.0 34.8 -1.2 8 20.2 S 11 15 6 8 1009.1 1008.2 0.0
20/06:30pm 39.9 36.1 -0.5 8 20.6 SE 9 15 5 8 1008.9 1008.0 0.0
20/06:00pm 39.6 36.2 -0.8 8 20.5 E 7 11 4 6 1008.8 1007.9 0.0
20/05:30pm 39.6 36.2 -0.8 8 20.5 ENE 7 15 4 8 1008.9 1008.0 0.0
20/05:00pm 39.2 34.2 -1.1 8 20.3 WSW 15 24 8 13 1009.2 1008.3 0.0
20/04:30pm 39.3 34.3 -1.0 8 20.3 SSW 15 26 8 14 1009.3 1008.4 0.0
20/04:00pm 39.3 33.6 -1.0 8 20.3 SSE 19 28 10 15 1009.4 1008.5 0.0
20/03:30pm 39.0 34.4 -1.2 8 20.2 S 13 26 7 14 1009.7 1008.8 0.0
20/03:00pm 39.7 36.3 -0.7 8 20.5 SSW 7 19 4 10 1010.2 1009.2 0.0
20/02:30pm 38.5 34.6 -1.6 8 19.9 N 9 17 5 9 1010.6 1009.6 0.0
20/02:00pm 38.4 34.1 -1.6 8 19.9 WSW 11 17 6 9 1011.0 1010.0 0.0
20/01:30pm 38.2 34.6 -1.8 8 19.8 W 7 15 4 8 1011.3 1010.3 0.0
20/01:00pm 37.7 33.9 -0.6 9 19.2 N 9 15 5 8 1011.7 1010.7 0.0
20/12:30pm 37.3 33.1 -0.9 9 19.0 E 11 20 6 11 1012.1 1011.1 0.0
20/12:00pm 36.2 32.3 -1.7 9 18.5 NE 9 13 5 7 1012.5 1011.5 0.0
20/11:30am 35.7 31.0 -2.0 9 18.3 S 13 17 7 9 1012.9 1012.0 0.0
20/11:00am 35.3 31.3 -2.3 9 18.1 NNE 9 13 5 7 1013.2 1012.3 0.0
20/10:30am 34.6 30.1 -2.9 9 17.8 ESE 11 19 6 10 1013.3 1012.4 0.0
20/10:00am 33.2 28.4 -2.5 10 16.9 ENE 13 20 7 11 1013.4 1012.5 0.0
20/09:30am 32.6 27.2 -1.7 11 16.4 E 17 22 9 12 1013.5 1012.6 0.0
20/09:00am 31.2 25.9 -0.5 13 15.3 E 17 22 9 12 1013.5 1012.6 0.0
20/08:30am 29.8 24.3 0.4 15 14.3 E 19 26 10 14 1013.7 1012.8 0.0
20/08:00am 27.1 23.6 1.5 19 12.4 E 9 13 5 7 1013.4 1012.5 0.0
20/07:30am 22.4 20.0 4.5 31 8.9 NE 6 7 3 4 1013.1 1012.2 0.0
20/07:00am 19.1 17.7 3.7 36 7.4 CALM 0 0 0 0 1013.0 1012.1 0.0
20/06:30am 18.1 15.5 3.2 37 7.0 NE 6 7 3 4 1012.7 1011.8 0.0
20/06:00am 17.5 15.8 3.8 40 6.5 ENE 2 9 1 5 1012.5 1011.5 0.0
20/05:30am 17.5 15.9 2.7 37 6.8 CALM 0 2 0 1 1012.3 1011.3 0.0
20/05:00am 17.6 15.9 1.6 34 7.2 CALM 0 0 0 0 1012.1 1011.1 0.0
20/04:30am 18.0 16.4 2.3 35 7.2 CALM 0 0 0 0 1012.0 1011.0 0.0
20/04:00am 18.2 16.6 2.5 35 7.3 CALM 0 0 0 0 1012.1 1011.1 0.0
20/03:30am 18.9 17.3 2.7 34 7.6 CALM 0 0 0 0 1012.2 1011.2 0.0
20/03:00am 19.0 17.2 1.5 31 8.0 CALM 0 0 0 0 1012.2 1011.2 0.0
20/02:30am 19.7 18.1 2.6 32 8.0 CALM 0 0 0 0 1012.2 1011.2 0.0
20/02:00am 20.4 18.9 3.2 32 8.2 CALM 0 0 0 0 1012.2 1011.2 0.0
20/01:30am 20.7 19.1 2.5 30 8.6 CALM 0 0 0 0 1012.3 1011.3 0.0
20/01:00am 20.9 19.3 2.7 30 8.6 CALM 0 0 0 0 1012.6 1011.6 0.0
20/12:30am 21.3 19.7 2.6 29 8.9 CALM 0 0 0 0 1012.7 1011.8 0.0
20/12:00am 22.6 21.0 2.7 27 9.6 CALM 0 6 0 3 1012.7 1011.8 0.0
 
Date/Time
EDT
Temp
°C
App
Temp
°C
Dew
Point
°C
Rel
Hum
%
Delta-T
°C
Wind Press
QNH
hPa
Press
MSL
hPa
Rain since
9am
mm
Dir  Spd
km/h
Gust
km/h
Spd
kts
Gust
kts
19/11:30pm 23.1 20.8 2.6 26 9.9 NNW 4 7 2 4 1012.7 1011.8 0.0
19/11:00pm 23.9 21.6 2.7 25 10.3 NW 4 6 2 3 1012.7 1011.8 0.0
19/10:30pm 25.1 23.4 1.9 22 11.2 CALM 0 0 0 0 1012.5 1011.5 0.0
19/10:00pm 26.1 24.4 2.1 21 11.7 CALM 0 0 0 0 1012.2 1011.2 0.0
19/09:30pm 27.2 25.5 1.6 19 12.5 CALM 0 0 0 0 1011.9 1010.9 0.0
19/09:00pm 29.1 27.1 -0.1 15 14.0 CALM 0 0 0 0 1011.6 1010.6 0.0
19/08:30pm 31.2 28.8 -0.5 13 15.3 WNW 2 7 1 4 1011.4 1010.4 0.0
19/08:00pm 33.9 29.9 -2.0 10 17.2 W 9 13 5 7 1011.2 1010.2 0.0
19/07:30pm 35.7 31.0 -2.0 9 18.3 WSW 13 20 7 11 1011.1 1010.1 0.0
19/07:00pm 36.6 31.2 -1.4 9 18.7 WSW 17 28 9 15 1010.8 1009.8 0.0
19/06:30pm 36.8 30.8 -1.2 9 18.8 SW 20 26 11 14 1010.6 1009.6 0.0
19/06:00pm 37.2 31.1 -2.5 8 19.3 SW 20 30 11 16 1010.4 1009.4 0.0
19/05:30pm 37.5 32.0 -2.3 8 19.4 WSW 17 28 9 15 1010.4 1009.4 0.0
19/05:00pm 36.8 30.3 -2.8 8 19.1 W 22 32 12 17 1010.6 1009.6 0.0
19/04:30pm 37.1 31.5 -2.6 8 19.2 W 17 30 9 16 1010.7 1009.7 0.0
19/04:00pm 37.1 31.0 -2.6 8 19.3 W 20 35 11 19 1011.1 1010.1 0.0
19/03:30pm 36.7 30.4 -1.3 9 18.8 W 22 43 12 23 1011.4 1010.4 0.0
19/03:00pm 36.9 30.6 -1.1 9 18.9 WNW 22 43 12 23 1011.6 1010.6 0.0
19/02:30pm 35.8 30.7 -2.0 9 18.3 WSW 15 35 8 19 1012.1 1011.1 0.0
19/02:00pm 35.0 29.4 -2.6 9 18.0 W 17 32 9 17 1012.6 1011.6 0.0
19/01:30pm 35.1 29.2 -1.1 10 17.7 WNW 20 33 11 18 1013.0 1012.1 0.0
19/01:00pm 34.9 30.3 -1.2 10 17.6 NW 13 22 7 12 1013.4 1012.5 0.0
19/12:30pm 34.5 29.5 -1.5 10 17.5 WNW 15 26 8 14 1013.8 1012.9 0.0
19/12:00pm 34.1 29.2 -0.5 11 17.0 NW 15 30 8 16 1014.1 1013.2 0.0
19/11:30am 32.8 28.1 -1.5 11 16.4 WNW 13 22 7 12 1014.7 1013.7 0.0
19/11:00am 32.0 27.4 -0.9 12 15.8 NW 13 22 7 12 1015.0 1014.0 0.0
19/10:30am 30.9 26.3 -0.7 13 15.2 NW 13 20 7 11 1015.3 1014.3 0.0
19/10:00am 30.1 25.2 -0.3 14 14.6 NW 15 22 8 12 1015.3 1014.3 0.0
19/09:30am 29.0 24.7 0.7 16 13.7 NW 13 20 7 11 1015.5 1014.5 0.0
19/09:00am 27.9 24.6 2.2 19 12.7 NW 9 11 5 6 1015.4 1014.4 0.0
19/08:30am 25.1 23.5 4.3 26 10.5 NNE 2 7 1 4 1015.4 1014.4 0.0
19/08:00am 22.6 19.8 3.2 28 9.4 NE 7 9 4 5 1015.2 1014.2 0.0
19/07:30am 19.6 15.8 2.0 31 8.2 NE 11 13 6 7 1015.1 1014.1 0.0
19/07:00am 16.8 13.9 2.4 38 6.6 NE 7 9 4 5 1014.9 1013.9 0.0
19/06:30am 14.3 12.7 2.2 44 5.4 CALM 0 0 0 0 1014.7 1013.7 0.0
19/06:00am 14.3 11.5 2.2 44 5.4 ENE 6 7 3 4 1014.3 1013.4 0.0
19/05:30am 14.5 11.8 2.4 44 5.4 ENE 6 7 3 4 1014.2 1013.3 0.0
19/05:00am 14.9 12.5 2.4 43 5.6 ENE 4 9 2 5 1014.1 1013.2 0.0
19/04:30am 14.4 12.7 1.7 42 5.6 CALM 0 0 0 0 1014.1 1013.2 0.0
19/04:00am 14.8 13.1 1.7 41 5.8 CALM 0 0 0 0 1014.0 1013.1 0.0
19/03:30am 15.1 12.6 1.6 40 6.0 ENE 4 7 2 4 1014.1 1013.2 0.0
19/03:00am 15.4 13.6 1.5 39 6.2 CALM 0 0 0 0 1014.4 1013.5 0.0
19/02:30am 15.8 14.0 1.5 38 6.4 CALM 0 0 0 0 1014.7 1013.7 0.0
19/02:00am 16.0 14.2 1.3 37 6.5 CALM 0 4 0 2 1015.0 1014.0 0.0
19/01:30am 17.0 13.9 1.4 35 7.0 ENE 7 7 4 4 1015.1 1014.1 0.0
19/01:00am 18.0 14.5 1.5 33 7.5 ENE 9 11 5 6 1015.3 1014.3 0.0
19/12:30am 17.8 14.7 1.3 33 7.4 NE 7 9 4 5 1015.6 1014.6 0.0
19/12:00am 18.2 15.7 1.3 32 7.6 NE 4 9 2 5 1015.9 1014.9 0.0
 
Date/Time
EDT
Temp
°C
App
Temp
°C
Dew
Point
°C
Rel
Hum
%
Delta-T
°C
Wind Press
QNH
hPa
Press
MSL
hPa
Rain since
9am
mm
Dir  Spd
km/h
Gust
km/h
Spd
kts
Gust
kts
18/11:30pm 18.8 17.0 0.9 30 8.1 CALM 0 0 0 0 1016.0 1015.0 0.0
18/11:00pm 19.7 16.6 1.2 29 8.4 NNE 7 9 4 5 1016.0 1015.0 0.0
18/10:30pm 20.7 18.9 1.1 27 9.0 CALM 0 0 0 0 1015.9 1014.9 0.0
18/10:00pm 22.0 20.2 1.1 25 9.7 CALM 0 0 0 0 1015.8 1014.8 0.0
18/09:30pm 23.1 21.3 0.9 23 10.3 CALM 0 0 0 0 1015.5 1014.5 0.0
18/09:00pm 24.6 22.6 0.2 20 11.3 CALM 0 0 0 0 1015.3 1014.3 0.0
18/08:30pm 25.5 23.4 -0.5 18 12.0 CALM 0 0 0 0 1015.2 1014.2 0.0
18/08:00pm 28.0 24.2 -1.0 15 13.5 W 9 11 5 6 1015.0 1014.0 0.0
18/07:30pm 29.6 25.7 -1.7 13 14.6 W 9 15 5 8 1014.8 1013.8 0.0
18/07:05pm 30.1 25.7 -2.4 12 15.0 WNW 11 15 6 8 1014.5 1013.6 0.0
18/07:00pm 30.2 26.2 -2.3 12 15.1 WNW 9 17 5 9 1014.5 1013.6 0.0
18/06:47pm 30.5 26.4 -3.3 11 15.5 WSW 9 13 5 7 1014.4 1013.5 0.0
18/06:30pm 30.7 27.1 -1.9 12 15.3 W 7 13 4 7 1014.4 1013.5 0.0
18/06:00pm 30.4 26.4 -2.2 12 15.2 NNW 9 13 5 7 1014.4 1013.5 0.0
18/05:30pm 30.2 25.7 -3.5 11 15.3 S 11 19 6 10 1014.5 1013.6 0.0
18/05:00pm 30.4 25.6 -2.2 12 15.2 W 13 20 7 11 1014.8 1013.8 0.0
18/04:30pm 29.9 25.1 -2.6 12 15.0 SW 13 20 7 11 1015.1 1014.1 0.0
18/04:00pm 29.9 26.2 -2.6 12 15.0 NW 7 15 4 8 1015.5 1014.5 0.0
18/03:30pm 29.1 25.5 -2.1 13 14.4 W 7 11 4 6 1015.9 1014.9 0.0
18/03:00pm 28.4 24.6 -3.7 12 14.3 WSW 7 15 4 8 1016.3 1015.3 0.0
18/02:30pm 27.7 22.7 -4.3 12 14.1 SE 13 26 7 14 1016.9 1016.0 0.0
18/02:00pm 27.4 23.1 -4.5 12 13.9 S 9 20 5 11 1017.5 1016.6 0.0
18/01:30pm 28.1 23.3 -2.9 13 14.0 S 13 20 7 11 1017.9 1017.0 0.0
18/01:00pm 26.7 21.8 -3.0 14 13.2 SSE 13 22 7 12 1018.2 1017.3 0.0

Other formats

Comma delimited format used in spreadsheet applications
http://www.bom.gov.au/fwo/IDN60801/IDN60801.94710.axf

JavaScript Object Notation format (JSON) in row-major order
http://www.bom.gov.au/fwo/IDN60801/IDN60801.94710.json

Data quality

Most of these data are generated automatically and are frequently updated. Quality checks on data are not normally performed. It is possible for incorrect values to appear. Refer to information at About Latest Weather Observations and please check the disclaimer before using these data.